Time;durP1;ratioP1;P1;durP2;ratioP2;P2;SDS_P1;SDS_P2;PMS_P1;PMS_P2;Temp;Humidity;BMP_temperature;BMP_pressure;BME280_temperature;BME280_humidity;BME280_pressure;Samples;Min_cycle;Max_cycle;Signal;HPM_P1;HPM_P2
2021/04/04 00:01:43;;;;;;;1.77;0.80;;;;;;;3.65;61.44;101205.72;5084557;28;20280;-69
2021/04/04 00:04:10;;;;;;;0.70;0.50;;;;;;;3.58;61.78;101197.06;5083455;28;20200;-69
2021/04/04 00:06:38;;;;;;;1.83;1.20;;;;;;;3.58;61.62;101199.72;5083375;28;20220;-69
2021/04/04 00:09:05;;;;;;;1.67;1.57;;;;;;;3.59;62.00;101195.28;5084150;28;20216;-69
2021/04/04 00:11:32;;;;;;;1.93;0.60;;;;;;;3.58;61.83;101196.19;5084800;28;20570;-69
2021/04/04 00:14:00;;;;;;;0.40;0.40;;;;;;;3.40;62.17;101166.69;5086657;28;20291;-71
2021/04/04 00:16:28;;;;;;;0.70;0.60;;;;;;;3.60;61.76;101199.69;5086553;28;20196;-69
2021/04/04 00:18:55;;;;;;;1.30;0.30;;;;;;;3.62;62.28;101189.88;5086338;28;20185;-69
2021/04/04 00:21:23;;;;;;;0.30;0.27;;;;;;;3.64;62.61;101188.03;5088303;28;20216;-69
2021/04/04 00:23:50;;;;;;;1.47;0.27;;;;;;;3.68;62.46;101190.56;5091767;28;20218;-69
2021/04/04 00:26:17;;;;;;;0.30;0.30;;;;;;;3.67;62.49;101177.31;5090586;28;20203;-69
2021/04/04 00:28:44;;;;;;;0.60;0.43;;;;;;;3.70;62.57;101179.91;5090370;28;20224;-71
2021/04/04 00:31:12;;;;;;;0.47;0.47;;;;;;;3.69;62.88;101173.72;5085976;28;20200;-71
2021/04/04 00:33:40;;;;;;;0.60;0.40;;;;;;;3.76;63.04;101192.97;5088651;28;20215;-69
2021/04/04 00:36:07;;;;;;;0.40;0.40;;;;;;;3.76;63.22;101182.34;5090607;28;20196;-69
2021/04/04 00:38:34;;;;;;;0.53;0.30;;;;;;;3.62;63.36;101158.00;5088391;28;20224;-69
2021/04/04 00:41:03;;;;;;;1.57;0.40;;;;;;;3.33;62.64;101122.66;5090921;28;20197;-71
2021/04/04 00:43:30;;;;;;;0.70;0.57;;;;;;;3.72;63.34;101167.44;5089153;28;20275;-71
2021/04/04 00:45:57;;;;;;;1.43;0.40;;;;;;;3.69;63.15;101175.50;5088089;28;20670;-71
2021/04/04 00:48:25;;;;;;;2.10;0.53;;;;;;;3.65;63.08;101163.22;5089891;28;20235;-71
2021/04/04 00:50:53;;;;;;;1.43;0.70;;;;;;;3.36;63.20;101130.50;5088325;28;20235;-69
2021/04/04 00:53:20;;;;;;;0.37;0.37;;;;;;;3.36;63.13;101114.59;5085644;28;20196;-69
2021/04/04 00:55:48;;;;;;;0.97;0.70;;;;;;;3.66;63.22;101160.50;5090445;28;20450;-69
2021/04/04 00:58:15;;;;;;;0.47;0.40;;;;;;;3.68;62.86;101153.41;5092516;28;20219;-69
2021/04/04 01:00:42;;;;;;;0.63;0.50;;;;;;;3.63;62.63;101149.13;5088534;28;20228;-71
2021/04/04 01:03:10;;;;;;;0.40;0.40;;;;;;;3.62;63.04;101139.44;5087136;28;20229;-71
2021/04/04 01:05:45;;;;;;;12.73;10.13;;;;;;;3.60;63.31;101138.59;5087274;28;20575;-71
2021/04/04 01:08:12;;;;;;;215.47;78.37;;;;;;;3.59;62.61;101134.22;5088351;28;20242;-69
2021/04/04 01:10:43;;;;;;;56.47;19.07;;;;;;;3.55;63.39;101122.84;5088059;28;20662;-70
2021/04/04 01:13:23;;;;;;;12.73;4.63;;;;;;;3.59;63.56;101126.25;5088685;28;20196;-70
2021/04/04 01:15:57;;;;;;;11.20;2.90;;;;;;;3.61;63.39;101130.59;5089804;28;20232;-72
2021/04/04 01:18:30;;;;;;;3.47;3.13;;;;;;;3.63;63.23;101119.91;5089546;28;20203;-69
2021/04/04 01:21:03;;;;;;;2.10;1.67;;;;;;;3.60;63.19;101114.72;5090928;28;20276;-69
2021/04/04 01:24:03;;;;;;;1.10;0.90;;;;;;;3.57;63.48;101110.38;5085387;28;20796;-69
2021/04/04 01:26:42;;;;;;;7.33;2.83;;;;;;;3.54;63.45;101117.56;5086817;28;20548;-69
2021/04/04 01:29:11;;;;;;;8.23;2.20;;;;;;;3.55;63.31;101100.72;5088698;28;20278;-71
2021/04/04 01:31:43;;;;;;;2.00;0.80;;;;;;;3.48;64.17;101107.16;5087099;28;20279;-71
2021/04/04 01:34:13;;;;;;;0.50;0.50;;;;;;;3.46;64.74;101079.81;5089487;28;20192;-69
2021/04/04 01:36:42;;;;;;;1.37;1.10;;;;;;;3.54;64.98;101075.09;5088638;28;20282;-71
2021/04/04 01:39:12;;;;;;;0.83;0.77;;;;;;;3.54;64.90;101083.06;5087530;28;20624;-69
2021/04/04 01:41:41;;;;;;;0.80;0.80;;;;;;;3.48;64.66;101091.22;5089425;28;20302;-72
2021/04/04 01:44:12;;;;;;;6.27;1.30;;;;;;;3.36;64.46;101058.84;5087347;28;20744;-72
2021/04/04 01:46:40;;;;;;;2.00;0.93;;;;;;;3.47;64.54;101079.75;5089768;28;20223;-72
2021/04/04 01:49:08;;;;;;;1.17;0.70;;;;;;;3.44;65.09;101079.84;5088331;28;20645;-72
2021/04/04 01:51:36;;;;;;;0.70;0.70;;;;;;;3.46;64.97;101074.50;5089238;28;20547;-72
2021/04/04 01:54:06;;;;;;;0.60;0.60;;;;;;;3.41;65.43;101075.50;5084058;28;20287;-69
2021/04/04 01:56:35;;;;;;;1.60;0.80;;;;;;;3.42;65.32;101071.06;5088647;28;20197;-69
2021/04/04 01:59:03;;;;;;;0.70;0.60;;;;;;;3.42;66.17;101071.06;5086715;28;20563;-72
2021/04/04 02:01:32;;;;;;;2.20;0.60;;;;;;;3.40;66.08;101071.13;5087925;28;20196;-72
2021/04/04 02:04:01;;;;;;;0.93;0.40;;;;;;;3.36;66.51;101072.13;5085515;28;20796;-69
2021/04/04 02:06:28;;;;;;;2.27;0.63;;;;;;;3.33;66.44;101066.91;5086124;28;21015;-69
2021/04/04 02:08:56;;;;;;;1.27;0.90;;;;;;;3.32;66.48;101053.69;5082356;28;20203;-69
2021/04/04 02:11:27;;;;;;;6.33;1.00;;;;;;;3.38;66.79;101054.38;5087198;28;20203;-69
2021/04/04 02:13:55;;;;;;;5.13;0.43;;;;;;;3.34;66.08;101052.72;5088392;28;20728;-69
2021/04/04 02:16:22;;;;;;;1.27;0.57;;;;;;;3.33;66.75;101051.00;5088322;28;20367;-70
2021/04/04 02:18:50;;;;;;;0.90;0.50;;;;;;;3.34;67.34;101058.03;5089769;28;20592;-70
2021/04/04 02:21:18;;;;;;;0.40;0.40;;;;;;;3.36;66.69;101056.19;5083821;28;20769;-69
2021/04/04 02:23:46;;;;;;;0.73;0.60;;;;;;;3.10;66.82;101011.09;5086238;28;20698;-69
2021/04/04 02:26:14;;;;;;;0.80;0.40;;;;;;;3.32;66.64;101046.59;5087977;28;20310;-69
2021/04/04 02:28:41;;;;;;;1.57;0.50;;;;;;;3.37;67.28;101044.69;5088317;28;20245;-71
2021/04/04 02:31:12;;;;;;;3.90;0.77;;;;;;;3.35;66.85;101043.84;5086628;28;20210;-72
2021/04/04 02:33:48;;;;;;;2.30;0.63;;;;;;;3.33;67.06;101039.50;5087479;28;20220;-72
2021/04/04 02:36:18;;;;;;;1.13;0.50;;;;;;;3.32;66.82;101033.34;5087181;28;20717;-72
2021/04/04 02:38:49;;;;;;;0.60;0.60;;;;;;;3.34;66.98;101031.50;5085506;28;20746;-69
2021/04/04 02:41:17;;;;;;;1.20;0.30;;;;;;;3.33;66.55;101031.53;5085610;28;20199;-70
2021/04/04 02:43:45;;;;;;;0.77;0.50;;;;;;;3.27;66.96;101027.31;5084450;28;20215;-72
2021/04/04 02:46:16;;;;;;;5.60;1.10;;;;;;;3.32;67.27;101020.06;5089021;28;20290;-72
2021/04/04 02:48:47;;;;;;;128.70;67.70;;;;;;;3.30;67.26;101024.56;5087025;28;20655;-72
2021/04/04 02:51:18;;;;;;;13.23;5.97;;;;;;;3.29;67.39;101025.47;5089191;28;20191;-72
2021/04/04 02:53:48;;;;;;;3.83;2.23;;;;;;;3.31;67.47;101023.63;5083120;28;20204;-72
2021/04/04 02:56:18;;;;;;;9.13;6.60;;;;;;;3.34;67.25;101023.53;5086677;28;20227;-72
2021/04/04 02:58:48;;;;;;;4.07;2.50;;;;;;;3.35;67.57;101017.31;5086910;28;20350;-71
2021/04/04 03:01:17;;;;;;;1.23;0.87;;;;;;;3.40;67.64;101030.44;5088365;28;20368;-71
2021/04/04 03:03:47;;;;;;;1.20;1.10;;;;;;;3.43;67.43;101023.25;5084239;28;20212;-71
2021/04/04 03:06:17;;;;;;;0.73;0.73;;;;;;;3.46;67.08;101030.22;5086861;28;20196;-70
2021/04/04 03:08:47;;;;;;;1.50;0.83;;;;;;;3.48;66.88;101022.22;5085599;28;20653;-72
2021/04/04 03:11:16;;;;;;;0.70;0.70;;;;;;;3.43;66.83;101025.03;5085873;28;20200;-71
2021/04/04 03:13:46;;;;;;;1.63;1.53;;;;;;;3.42;67.19;101012.69;5086593;28;20219;-71
2021/04/04 03:16:15;;;;;;;1.43;1.33;;;;;;;3.43;67.35;101009.97;5078928;28;20192;-70
2021/04/04 03:18:44;;;;;;;0.80;0.80;;;;;;;3.41;67.03;100998.53;5075622;28;20698;-71
2021/04/04 03:21:12;;;;;;;0.80;0.80;;;;;;;3.43;67.10;100999.34;5078803;28;20582;-71
2021/04/04 03:23:42;;;;;;;0.80;0.80;;;;;;;3.42;66.90;100997.63;5075983;28;20227;-71
2021/04/04 03:26:11;;;;;;;1.10;1.00;;;;;;;3.41;67.04;100987.06;5080157;28;20200;-71
2021/04/04 03:28:39;;;;;;;2.93;1.97;;;;;;;3.19;66.86;100941.81;5080480;28;20312;-71
2021/04/04 03:31:06;;;;;;;2.10;1.00;;;;;;;3.33;66.86;100955.44;5086643;28;20192;-71
2021/04/04 03:33:34;;;;;;;1.63;0.40;;;;;;;3.38;66.73;100969.44;5087206;28;20280;-71
2021/04/04 03:36:02;;;;;;;1.47;0.70;;;;;;;3.36;66.83;100968.59;5085662;28;20283;-69
2021/04/04 03:38:31;;;;;;;0.30;0.30;;;;;;;2.89;66.73;100895.09;5083913;28;20593;-69
2021/04/04 03:41:00;;;;;;;1.50;0.60;;;;;;;3.30;66.45;100966.16;5080989;28;20204;-69
2021/04/04 03:43:33;;;;;;;2.13;0.60;;;;;;;3.22;66.76;100959.41;5081962;28;20215;-69
2021/04/04 03:46:02;;;;;;;2.00;0.63;;;;;;;3.15;67.23;100953.44;5083370;28;20196;-69
2021/04/04 03:48:31;;;;;;;1.23;0.60;;;;;;;3.05;67.33;100939.59;5082643;28;20200;-69
2021/04/04 03:51:02;;;;;;;0.50;0.50;;;;;;;3.07;67.71;100953.72;5075574;28;20625;-71
2021/04/04 03:53:30;;;;;;;0.40;0.40;;;;;;;2.90;67.39;100926.00;5078074;28;20551;-71
2021/04/04 03:56:02;;;;;;;3.03;0.90;;;;;;;2.92;67.79;100937.41;5080903;28;20196;-71
2021/04/04 03:58:33;;;;;;;1.90;0.77;;;;;;;2.88;67.39;100957.00;5086566;28;20203;-71
2021/04/04 04:01:03;;;;;;;0.80;0.70;;;;;;;2.90;67.87;100960.47;5082541;28;20199;-71
2021/04/04 04:03:34;;;;;;;2.20;0.67;;;;;;;2.83;68.18;100951.00;5084026;28;20215;-72
2021/04/04 04:06:02;;;;;;;1.33;1.00;;;;;;;2.84;68.00;100963.34;5090230;28;20188;-71
2021/04/04 04:08:31;;;;;;;3.23;1.20;;;;;;;2.82;68.00;100958.09;5089663;28;20638;-71
2021/04/04 04:10:59;;;;;;;1.20;0.67;;;;;;;2.85;67.60;100943.84;5084655;28;20233;-71
2021/04/04 04:13:30;;;;;;;0.53;0.50;;;;;;;2.90;67.91;100944.56;5083506;28;20210;-71
2021/04/04 04:15:57;;;;;;;2.87;0.50;;;;;;;2.89;67.36;100932.22;5091038;28;20292;-71
2021/04/04 04:18:25;;;;;;;4.00;0.73;;;;;;;2.83;67.80;100929.78;5089762;28;20200;-71
2021/04/04 04:20:53;;;;;;;2.67;0.93;;;;;;;2.85;67.86;100922.63;5090614;28;20228;-71
2021/04/04 04:23:22;;;;;;;0.97;0.67;;;;;;;2.88;67.65;100914.56;5090460;28;20212;-71
2021/04/04 04:25:53;;;;;;;1.03;0.80;;;;;;;2.85;67.89;100912.03;5091665;28;20203;-71
2021/04/04 04:28:20;;;;;;;1.60;0.90;;;;;;;2.86;67.49;100913.75;5086037;28;20207;-71
2021/04/04 04:30:50;;;;;;;0.73;0.60;;;;;;;2.83;68.04;100905.91;5088371;28;20204;-71
2021/04/04 04:33:20;;;;;;;56.30;29.17;;;;;;;2.85;67.37;100904.06;5085495;28;20256;-71
2021/04/04 04:35:50;;;;;;;15.47;9.13;;;;;;;2.89;67.68;100905.69;5091714;28;20208;-69
2021/04/04 04:38:18;;;;;;;2.00;1.80;;;;;;;2.67;67.76;100849.88;5090201;28;20238;-70
2021/04/04 04:40:46;;;;;;;1.67;1.50;;;;;;;2.97;67.79;100887.72;5084341;28;20253;-69
2021/04/04 04:43:17;;;;;;;4.37;1.30;;;;;;;3.05;67.79;100888.31;5086581;28;20224;-70
2021/04/04 04:45:46;;;;;;;2.10;1.23;;;;;;;2.62;68.07;100799.66;5090377;28;20224;-70
2021/04/04 04:48:14;;;;;;;6.77;2.10;;;;;;;3.16;68.41;100872.06;5082258;28;20289;-70
2021/04/04 04:50:42;;;;;;;2.40;1.30;;;;;;;3.32;67.65;100879.41;5080957;28;20284;-70
2021/04/04 04:53:10;;;;;;;1.20;1.10;;;;;;;3.35;68.19;100871.31;5087925;28;20291;-71
2021/04/04 04:55:41;;;;;;;10.10;7.13;;;;;;;3.44;68.31;100862.19;5081270;28;20279;-72
2021/04/04 04:58:08;;;;;;;4.97;2.10;;;;;;;3.45;68.50;100831.22;5088166;28;20231;-71
2021/04/04 05:00:36;;;;;;;4.17;1.30;;;;;;;3.73;68.05;100859.31;5084969;28;20243;-71
2021/04/04 05:03:06;;;;;;;2.53;1.20;;;;;;;3.87;67.62;100861.44;5082702;28;20241;-71
2021/04/04 05:05:34;;;;;;;5.13;2.17;;;;;;;4.02;67.71;100852.88;5088847;28;20205;-72
2021/04/04 05:08:02;;;;;;;4.10;1.93;;;;;;;4.24;66.97;100855.53;5086622;28;20263;-72
2021/04/04 05:10:29;;;;;;;2.23;1.50;;;;;;;4.32;66.62;100837.53;5078482;28;20224;-72
2021/04/04 05:13:00;;;;;;;5.07;1.30;;;;;;;4.64;66.38;100859.25;5073601;28;20204;-72
2021/04/04 05:15:27;;;;;;;1.47;0.80;;;;;;;4.74;66.17;100852.63;5078459;28;20238;-72
2021/04/04 05:17:54;;;;;;;2.60;0.73;;;;;;;4.71;64.73;100847.44;5077431;28;20255;-72
2021/04/04 05:20:22;;;;;;;2.77;0.90;;;;;;;4.91;65.72;100854.59;5072845;28;20201;-71
2021/04/04 05:22:50;;;;;;;1.60;0.70;;;;;;;4.92;64.24;100843.00;5079516;28;20253;-71
2021/04/04 05:25:18;;;;;;;0.80;0.80;;;;;;;4.97;64.38;100835.69;5081311;28;20189;-71
2021/04/04 05:27:45;;;;;;;2.10;0.97;;;;;;;5.14;64.75;100838.47;5085696;28;20204;-71
2021/04/04 05:30:14;;;;;;;1.27;0.90;;;;;;;5.34;64.99;100832.25;5091153;28;20193;-71
2021/04/04 05:32:46;;;;;;;1.53;1.20;;;;;;;5.43;64.53;100823.84;5077017;28;20342;-68
2021/04/04 05:35:15;;;;;;;2.47;1.00;;;;;;;5.62;64.17;100813.25;5081253;28;20224;-68
2021/04/04 05:37:48;;;;;;;1.20;1.07;;;;;;;5.83;63.22;100817.56;5084909;28;20200;-68
2021/04/04 05:40:22;;;;;;;1.47;0.73;;;;;;;5.92;63.38;100805.63;5087775;28;20283;-69
2021/04/04 05:42:54;;;;;;;1.67;1.20;;;;;;;6.09;62.81;100797.69;5084149;28;20763;-69
2021/04/04 05:45:28;;;;;;;7.07;0.97;;;;;;;6.26;62.87;100788.88;5081283;28;20639;-69
2021/04/04 05:48:07;;;;;;;3.93;0.83;;;;;;;6.41;61.54;100788.09;5090599;28;20664;-69
2021/04/04 05:50:46;;;;;;;1.87;1.10;;;;;;;6.53;61.24;100791.97;5076113;28;20327;-69
2021/04/04 05:53:23;;;;;;;1.30;0.87;;;;;;;6.78;61.33;100781.78;5088701;28;20664;-69
2021/04/04 05:56:01;;;;;;;1.97;1.20;;;;;;;6.99;61.44;100793.13;5089172;28;20233;-70
2021/04/04 05:58:31;;;;;;;4.13;1.17;;;;;;;7.10;61.05;100787.25;5078846;28;20679;-69
2021/04/04 06:01:10;;;;;;;1.27;1.10;;;;;;;7.09;60.86;100743.66;5076607;28;20206;-69
2021/04/04 06:04:03;;;;;;;2.10;0.93;;;;;;;7.58;60.22;100762.34;5075785;28;20273;-69
2021/04/04 06:07:03;;;;;;;3.53;1.17;;;;;;;7.50;57.79;100756.59;5074699;28;20196;-70
2021/04/04 06:09:55;;;;;;;2.83;1.30;;;;;;;7.66;56.29;100749.47;5081318;28;20264;-69
2021/04/04 06:12:46;;;;;;;5.53;1.50;;;;;;;7.91;58.19;100748.06;5078028;28;20207;-70
2021/04/04 06:15:25;;;;;;;4.57;1.23;;;;;;;8.06;56.02;100749.88;5076428;28;20598;-69
2021/04/04 06:18:04;;;;;;;1.27;1.10;;;;;;;7.98;55.20;100723.59;5078878;28;20563;-72
2021/04/04 06:20:43;;;;;;;3.90;1.03;;;;;;;8.22;56.14;100729.28;5088750;28;20214;-69
2021/04/04 06:23:21;;;;;;;0.80;0.80;;;;;;;8.17;56.23;100648.47;5074061;28;20584;-72
2021/04/04 06:25:58;;;;;;;0.77;0.60;;;;;;;8.84;55.44;100713.16;5070408;28;20589;-69
2021/04/04 06:28:41;;;;;;;4.63;1.10;;;;;;;9.15;54.84;100701.41;5071735;28;20217;-69
2021/04/04 06:31:16;;;;;;;1.87;1.00;;;;;;;9.19;53.21;100697.59;5071921;28;20192;-69
2021/04/04 06:33:49;;;;;;;4.57;0.97;;;;;;;9.42;53.33;100690.78;5085046;28;20225;-69
2021/04/04 06:36:30;;;;;;;1.53;0.77;;;;;;;9.58;52.59;100673.63;5085415;28;20199;-69
2021/04/04 06:39:06;;;;;;;1.03;0.90;;;;;;;9.78;51.86;100682.16;5088209;28;20612;-69
2021/04/04 06:42:03;;;;;;;1.90;0.90;;;;;;;9.91;50.56;100681.28;5074499;28;20672;-70
2021/04/04 06:44:42;;;;;;;5.97;1.30;;;;;;;9.89;49.38;100666.25;5083576;28;20234;-72
2021/04/04 06:47:16;;;;;;;3.37;1.40;;;;;;;10.13;50.97;100666.44;5076381;28;20282;-70
2021/04/04 06:50:01;;;;;;;3.87;0.93;;;;;;;10.21;50.46;100650.69;5070516;28;20627;-72
2021/04/04 06:52:42;;;;;;;0.80;0.80;;;;;;;10.44;50.73;100646.47;5079403;28;20291;-72
2021/04/04 06:55:17;;;;;;;1.50;0.70;;;;;;;10.43;50.67;100650.09;5072545;28;20292;-72
2021/04/04 06:58:01;;;;;;;1.10;0.57;;;;;;;10.57;50.68;100640.13;5072087;28;20215;-72
2021/04/04 07:00:39;;;;;;;1.70;0.90;;;;;;;10.84;49.28;100633.78;5076031;28;20236;-72
2021/04/04 07:03:07;;;;;;;1.10;0.80;;;;;;;10.88;48.85;100630.78;5074861;28;20224;-73
2021/04/04 07:05:40;;;;;;;0.73;0.70;;;;;;;10.92;47.54;100636.78;5072637;28;20235;-73
2021/04/04 07:08:25;;;;;;;1.13;0.70;;;;;;;11.06;47.60;100622.38;5072914;28;20973;-73
2021/04/04 07:11:03;;;;;;;0.80;0.60;;;;;;;11.05;45.46;100569.59;5069798;28;20204;-72
2021/04/04 07:13:55;;;;;;;0.67;0.50;;;;;;;11.38;45.83;100612.84;5070747;28;20197;-73
2021/04/04 07:16:41;;;;;;;1.30;0.60;;;;;;;11.43;45.87;100601.75;5074591;28;20204;-72
2021/04/04 07:19:37;;;;;;;1.93;0.60;;;;;;;11.65;47.54;100622.53;5070986;28;20284;-72
2021/04/04 07:22:14;;;;;;;1.23;0.63;;;;;;;11.94;47.52;100613.19;5061055;28;20672;-72
2021/04/04 07:24:54;;;;;;;0.97;0.83;;;;;;;12.16;46.87;100608.84;5075712;28;20205;-72
2021/04/04 07:27:32;;;;;;;0.80;0.70;;;;;;;12.24;46.16;100598.31;5081515;28;20201;-69
2021/04/04 07:30:30;;;;;;;0.50;0.50;;;;;;;12.22;43.16;100586.81;5071053;28;20292;-69
2021/04/04 07:33:08;;;;;;;1.50;0.57;;;;;;;12.11;43.61;100577.75;5071777;28;20246;-68
2021/04/04 07:35:42;;;;;;;0.93;0.80;;;;;;;12.28;43.36;100578.28;5073837;28;20232;-73
2021/04/04 07:38:17;;;;;;;1.13;0.60;;;;;;;12.32;45.77;100544.75;5077000;28;20204;-73
2021/04/04 07:40:52;;;;;;;2.63;0.70;;;;;;;12.86;45.06;100558.38;5074559;28;20284;-73
2021/04/04 07:43:28;;;;;;;2.80;0.70;;;;;;;13.06;45.27;100556.75;5081410;28;20280;-73
2021/04/04 07:46:04;;;;;;;1.07;0.90;;;;;;;13.03;42.67;100546.22;5074858;28;20211;-73
2021/04/04 07:48:43;;;;;;;2.80;0.73;;;;;;;13.11;43.99;100541.06;5071421;28;20197;-72
2021/04/04 07:51:15;;;;;;;0.50;0.50;;;;;;;13.15;44.55;100528.19;5078481;28;20687;-72
2021/04/04 07:53:46;;;;;;;1.37;0.67;;;;;;;13.22;43.16;100537.53;5080484;28;20188;-73
2021/04/04 07:56:17;;;;;;;3.30;0.70;;;;;;;13.32;44.90;100533.09;5076863;28;20283;-73
2021/04/04 07:58:55;;;;;;;4.67;0.70;;;;;;;13.47;43.38;100528.25;5073284;28;20203;-72
2021/04/04 08:01:27;;;;;;;0.63;0.60;;;;;;;13.39;42.00;100522.66;5075286;28;20562;-73
2021/04/04 08:04:04;;;;;;;1.63;0.80;;;;;;;13.43;41.71;100521.41;5080794;28;20226;-72
2021/04/04 08:06:38;;;;;;;2.53;0.80;;;;;;;13.50;44.69;100511.84;5075147;28;20370;-71
2021/04/04 08:09:13;;;;;;;2.90;0.97;;;;;;;13.44;41.53;100498.84;5079595;28;20203;-72
2021/04/04 08:11:47;;;;;;;0.83;0.70;;;;;;;13.48;41.63;100503.00;5074814;28;20200;-72
2021/04/04 08:14:19;;;;;;;5.33;0.97;;;;;;;13.38;43.06;100502.06;5074195;28;20220;-71
2021/04/04 08:16:52;;;;;;;0.67;0.67;;;;;;;13.20;43.02;100486.44;5070394;28;20209;-72
2021/04/04 08:19:20;;;;;;;1.60;1.00;;;;;;;13.19;44.31;100486.56;5076396;28;20192;-72
2021/04/04 08:21:54;;;;;;;0.67;0.67;;;;;;;13.00;43.69;100427.88;5083303;28;20198;-72
2021/04/04 08:24:28;;;;;;;0.63;0.63;;;;;;;13.40;44.03;100463.16;5077971;28;20220;-72
2021/04/04 08:27:01;;;;;;;1.57;0.80;;;;;;;13.32;43.15;100465.66;5077282;28;20198;-69
2021/04/04 08:29:33;;;;;;;0.70;0.50;;;;;;;13.35;42.86;100450.06;5072843;28;20745;-69
2021/04/04 08:32:05;;;;;;;0.87;0.67;;;;;;;12.94;42.74;100396.03;5072586;28;20278;-69
2021/04/04 08:34:37;;;;;;;0.70;0.70;;;;;;;13.13;42.17;100438.47;5080692;28;20282;-68
2021/04/04 08:37:14;;;;;;;1.10;0.80;;;;;;;13.17;41.87;100430.06;5076625;28;20285;-69
2021/04/04 08:39:51;;;;;;;3.87;0.70;;;;;;;13.14;41.40;100424.88;5071712;28;20199;-68
2021/04/04 08:42:19;;;;;;;3.80;0.80;;;;;;;12.97;40.59;100415.50;5073662;28;20726;-68
2021/04/04 08:44:59;;;;;;;4.50;0.73;;;;;;;13.06;41.02;100424.66;5080097;28;20197;-68
2021/04/04 08:47:29;;;;;;;1.43;0.97;;;;;;;12.95;41.61;100416.63;5072946;28;20622;-69
2021/04/04 08:50:02;;;;;;;0.70;0.70;;;;;;;13.07;42.09;100397.56;5071483;28;20195;-69
2021/04/04 08:52:32;;;;;;;1.70;1.10;;;;;;;13.10;42.38;100401.00;5073662;28;20192;-69
2021/04/04 08:55:00;;;;;;;1.00;0.90;;;;;;;13.09;41.29;100383.97;5075099;28;20720;-69
2021/04/04 08:57:33;;;;;;;4.07;0.77;;;;;;;13.20;42.21;100383.97;5074683;28;20618;-69
2021/04/04 09:00:06;;;;;;;0.73;0.60;;;;;;;13.21;41.54;100364.09;5075525;28;20223;-69
2021/04/04 09:02:38;;;;;;;1.07;0.90;;;;;;;13.01;42.31;100364.88;5074529;28;20223;-69
2021/04/04 09:05:08;;;;;;;4.80;0.97;;;;;;;12.96;42.25;100354.50;5079188;28;20212;-69
2021/04/04 09:07:41;;;;;;;2.40;0.90;;;;;;;12.75;41.89;100332.88;5090027;28;20260;-69
2021/04/04 09:10:11;;;;;;;1.80;0.90;;;;;;;12.92;43.32;100344.09;5076930;28;20203;-69
2021/04/04 09:12:40;;;;;;;7.33;1.27;;;;;;;13.02;43.11;100324.31;5090005;28;20609;-69
2021/04/04 09:15:09;;;;;;;0.83;0.83;;;;;;;13.20;42.79;100321.94;5075533;28;20217;-69
2021/04/04 09:17:36;;;;;;;2.70;0.80;;;;;;;13.26;42.64;100321.41;5089686;28;20205;-69
2021/04/04 09:20:08;;;;;;;3.47;1.27;;;;;;;13.12;42.44;100310.91;5085930;28;20250;-69
2021/04/04 09:22:37;;;;;;;2.47;1.10;;;;;;;13.12;42.23;100302.81;5087429;28;20236;-69
2021/04/04 09:25:08;;;;;;;0.70;0.70;;;;;;;13.26;42.39;100299.84;5069437;28;20199;-69
2021/04/04 09:27:42;;;;;;;1.53;0.70;;;;;;;13.16;42.61;100293.47;5071040;28;20227;-69
2021/04/04 09:30:23;;;;;;;4.57;1.10;;;;;;;13.24;42.35;100288.34;5084860;28;20545;-69
2021/04/04 09:32:53;;;;;;;3.70;0.70;;;;;;;13.32;43.05;100287.66;5071397;28;20576;-69
2021/04/04 09:35:23;;;;;;;1.33;1.03;;;;;;;13.41;42.43;100269.81;5085002;28;20207;-69
2021/04/04 09:37:51;;;;;;;2.10;0.93;;;;;;;13.40;41.71;100254.63;5087053;28;20568;-69
2021/04/04 09:40:20;;;;;;;1.33;1.00;;;;;;;13.57;42.71;100256.69;5077787;28;20293;-69
2021/04/04 09:42:48;;;;;;;0.80;0.80;;;;;;;13.62;42.22;100251.75;5082968;28;20277;-69
2021/04/04 09:45:18;;;;;;;2.23;0.87;;;;;;;13.60;40.83;100237.53;5084607;28;20259;-70
2021/04/04 09:47:45;;;;;;;2.67;1.00;;;;;;;13.81;41.88;100235.66;5077563;28;20282;-67
2021/04/04 09:50:24;;;;;;;1.57;1.00;;;;;;;13.74;42.02;100233.59;5082694;28;20689;-69
2021/04/04 09:52:54;;;;;;;2.23;0.97;;;;;;;13.84;42.71;100229.13;5071449;28;20635;-68
2021/04/04 09:55:23;;;;;;;0.93;0.90;;;;;;;14.00;41.77;100210.53;5081747;28;20196;-69
2021/04/04 09:58:00;;;;;;;2.00;0.87;;;;;;;14.16;41.76;100204.59;5123873;27;20207;-68
2021/04/04 10:00:31;;;;;;;1.77;1.00;;;;;;;14.30;41.25;100204.16;5087657;28;20252;-69
2021/04/04 10:03:11;;;;;;;1.47;0.90;;;;;;;14.38;40.47;100188.09;5088642;28;20219;-69
2021/04/04 10:05:43;;;;;;;3.87;1.07;;;;;;;14.49;40.41;100177.19;5086429;28;20814;-68
2021/04/04 10:08:14;;;;;;;1.90;0.93;;;;;;;14.57;40.27;100166.53;5083449;28;20228;-69
2021/04/04 10:10:45;;;;;;;3.13;0.80;;;;;;;14.60;40.13;100160.81;5089113;28;20191;-69
2021/04/04 10:13:14;;;;;;;2.53;0.80;;;;;;;14.54;39.02;100157.84;5090447;28;20623;-69
2021/04/04 10:15:46;;;;;;;2.30;0.90;;;;;;;14.35;41.32;100157.81;5074078;28;20205;-68
2021/04/04 10:18:19;;;;;;;4.37;0.90;;;;;;;14.20;40.50;100141.19;5078342;28;20692;-69
2021/04/04 10:20:51;;;;;;;1.60;0.87;;;;;;;14.46;40.81;100134.25;5077612;28;20615;-69
2021/04/04 10:23:19;;;;;;;1.13;0.90;;;;;;;14.44;40.33;100121.91;5081574;28;20266;-68
2021/04/04 10:25:59;;;;;;;1.33;0.67;;;;;;;14.52;39.97;100101.25;5083580;28;20654;-68
2021/04/04 10:28:43;;;;;;;0.83;0.80;;;;;;;14.70;40.05;100097.81;5087921;28;20259;-69
2021/04/04 10:31:14;;;;;;;2.43;1.23;;;;;;;14.75;40.18;100074.75;5084048;28;20297;-70
2021/04/04 10:33:42;;;;;;;0.87;0.73;;;;;;;14.76;40.50;100086.41;5075424;28;20698;-69
2021/04/04 10:36:27;;;;;;;3.63;0.83;;;;;;;14.90;40.58;100081.38;5076722;28;20214;-68
2021/04/04 10:38:57;;;;;;;3.30;1.50;;;;;;;15.03;39.35;100069.38;5076968;28;20204;-73
2021/04/04 10:41:27;;;;;;;1.43;1.20;;;;;;;15.09;39.44;100060.66;5077592;28;20794;-72
2021/04/04 10:43:58;;;;;;;3.97;1.27;;;;;;;15.33;39.00;100042.03;5076975;28;20246;-73
2021/04/04 10:46:30;;;;;;;0.80;0.80;;;;;;;15.30;38.22;100041.44;5071844;28;20224;-72
2021/04/04 10:49:02;;;;;;;2.70;0.90;;;;;;;15.34;38.53;100032.06;5084707;28;20226;-73
2021/04/04 10:51:34;;;;;;;2.87;1.20;;;;;;;15.23;39.17;100025.81;5071883;28;20578;-73
2021/04/04 10:54:05;;;;;;;5.33;1.50;;;;;;;15.50;38.91;100014.13;5080287;28;20204;-73
2021/04/04 10:56:35;;;;;;;2.03;1.30;;;;;;;15.33;38.11;99970.84;5075755;28;20299;-68
2021/04/04 10:59:07;;;;;;;1.83;1.03;;;;;;;15.44;37.57;99957.06;5082562;28;20621;-68
2021/04/04 11:01:38;;;;;;;1.00;0.90;;;;;;;15.81;37.97;99997.53;5077847;28;20192;-68
2021/04/04 11:04:14;;;;;;;2.03;0.93;;;;;;;15.82;38.13;99989.25;5076652;28;20580;-70
2021/04/04 11:06:45;;;;;;;1.60;1.07;;;;;;;16.03;38.31;99985.34;5076693;28;20224;-69
2021/04/04 11:09:16;;;;;;;0.83;0.73;;;;;;;16.26;37.73;99985.69;5076958;28;20189;-67
2021/04/04 11:11:47;;;;;;;1.77;1.30;;;;;;;16.46;36.58;99988.00;5078620;28;20188;-68
2021/04/04 11:14:19;;;;;;;1.23;1.13;;;;;;;16.50;37.77;99998.53;5077533;28;20180;-72
2021/04/04 11:16:52;;;;;;;3.63;1.97;;;;;;;16.57;38.00;99976.06;5080961;28;20204;-72
2021/04/04 11:19:27;;;;;;;2.10;1.50;;;;;;;16.86;37.66;99972.16;5082419;28;20197;-72
2021/04/04 11:22:01;;;;;;;2.30;1.37;;;;;;;17.00;36.03;99961.53;5083740;28;20205;-71
2021/04/04 11:25:00;;;;;;;1.37;1.00;;;;;;;17.10;37.21;99953.22;5078677;28;20697;-72
2021/04/04 11:27:42;;;;;;;3.43;1.10;;;;;;;17.28;36.08;99934.97;5072086;28;20663;-71
2021/04/04 11:30:15;;;;;;;2.50;0.80;;;;;;;17.05;36.19;99885.06;5087078;28;20921;-73
2021/04/04 11:32:48;;;;;;;1.00;0.80;;;;;;;17.30;36.64;99929.38;5076787;28;20536;-72
2021/04/04 11:35:18;;;;;;;3.03;0.87;;;;;;;17.16;36.26;99908.31;5079115;28;20216;-72
2021/04/04 11:37:47;;;;;;;5.30;0.90;;;;;;;17.33;35.78;99904.59;5079957;28;20207;-72
2021/04/04 11:40:21;;;;;;;3.13;1.00;;;;;;;17.45;36.52;99907.81;5084020;28;20194;-68
2021/04/04 11:42:50;;;;;;;1.40;0.90;;;;;;;17.55;36.30;99895.81;5077467;28;20215;-67
2021/04/04 11:45:37;;;;;;;0.97;0.83;;;;;;;17.52;35.85;99877.13;5080453;28;20205;-68
2021/04/04 11:48:30;;;;;;;0.80;0.80;;;;;;;17.56;35.48;99872.22;5078866;28;20206;-67
2021/04/04 11:51:29;;;;;;;2.93;0.90;;;;;;;17.46;37.16;99871.53;5072334;28;20221;-72
2021/04/04 11:53:57;;;;;;;1.60;0.90;;;;;;;17.59;36.48;99859.13;5089120;28;20526;-73